createdAt,value
2019-04-01T00:01:41.223Z,91.81
2019-04-01T00:04:48.910Z,90.96
2019-04-01T00:07:56.529Z,91.67
2019-04-01T00:11:04.432Z,91.83
2019-04-01T00:14:11.812Z,90.95
2019-04-01T00:17:19.504Z,92.22
2019-04-01T00:20:27.178Z,92.84
2019-04-01T00:23:34.656Z,93.82
2019-04-01T00:26:42.050Z,95.13
2019-04-01T00:29:49.682Z,96.10
2019-04-01T00:32:57.412Z,96.66
2019-04-01T00:36:05.498Z,96.75
2019-04-01T00:39:12.816Z,96.20
2019-04-01T00:42:28.714Z,95.67
2019-04-01T00:45:37.872Z,94.55
2019-04-01T00:48:45.237Z,94.09
2019-04-01T00:51:53.056Z,94.56
2019-04-01T00:55:00.451Z,95.43
2019-04-01T00:58:08.075Z,96.17
2019-04-01T01:01:15.618Z,95.14
2019-04-01T01:04:23.422Z,93.49
2019-04-01T01:07:31.115Z,92.75
2019-04-01T01:10:38.532Z,93.73
2019-04-01T01:13:46.233Z,94.87
2019-04-01T01:16:53.788Z,95.01
2019-04-01T01:20:01.615Z,96.04
2019-04-01T01:23:09.375Z,97.54
2019-04-01T01:26:16.820Z,96.62
2019-04-01T01:29:24.742Z,95.46
2019-04-01T01:32:32.298Z,93.71
2019-04-01T01:35:39.720Z,94.12
2019-04-01T01:38:47.174Z,94.96
2019-04-01T01:41:54.796Z,95.38
2019-04-01T01:45:02.835Z,96.18
2019-04-01T01:48:10.512Z,97.91
2019-04-01T01:51:18.204Z,99.50
2019-04-01T01:54:25.811Z,100.00
2019-04-01T01:57:33.434Z,100.00
2019-04-01T02:00:41.111Z,100.00
2019-04-01T02:03:48.473Z,100.00
2019-04-01T02:06:56.095Z,100.00
2019-04-01T02:10:03.930Z,100.00
2019-04-01T02:13:11.388Z,99.70
2019-04-01T02:16:18.817Z,97.67
2019-04-01T02:19:26.097Z,96.31
2019-04-01T02:22:33.500Z,96.79
2019-04-01T02:25:40.881Z,97.28
2019-04-01T02:28:48.256Z,98.26
2019-04-01T02:31:56.038Z,98.52
2019-04-01T02:35:03.640Z,98.65
2019-04-01T02:38:11.822Z,99.11
2019-04-01T02:41:19.588Z,98.69
2019-04-01T02:44:27.280Z,96.61
2019-04-01T02:47:35.086Z,95.95
2019-04-01T02:53:57.738Z,97.06
2019-04-01T02:57:04.915Z,98.10
2019-04-01T03:00:12.796Z,99.59
2019-04-01T03:03:20.192Z,100.00
2019-04-01T03:06:27.489Z,100.00
2019-04-01T03:09:34.794Z,100.00
2019-04-01T03:12:42.081Z,98.75
2019-04-01T03:15:49.256Z,97.72
2019-04-01T03:18:56.827Z,97.32
2019-04-01T03:22:04.150Z,97.59
2019-04-01T03:25:11.859Z,97.93
2019-04-01T03:28:19.028Z,98.20
2019-04-01T03:31:26.475Z,99.00
2019-04-01T03:34:34.230Z,100.00
2019-04-01T03:37:41.533Z,100.00
2019-04-01T03:40:48.814Z,99.75
2019-04-01T03:43:56.306Z,97.72
2019-04-01T03:47:03.813Z,96.69
2019-04-01T03:50:11.490Z,95.94
2019-04-01T03:53:19.039Z,95.81
2019-04-01T03:56:26.301Z,94.95
2019-04-01T03:59:34.591Z,95.99
2019-04-01T04:02:42.299Z,96.69
2019-04-01T04:05:50.078Z,97.59
2019-04-01T04:09:01.633Z,99.12
2019-04-01T04:12:07.386Z,99.79
2019-04-01T04:15:14.874Z,100.00
2019-04-01T04:18:22.615Z,100.00
2019-04-01T04:21:30.607Z,100.00
2019-04-01T04:24:38.085Z,100.00
2019-04-01T04:27:45.737Z,100.00
2019-04-01T04:30:53.271Z,99.69
2019-04-01T04:34:04.695Z,99.14
2019-04-01T04:37:12.162Z,98.82
2019-04-01T04:40:19.752Z,99.16
2019-04-01T04:43:26.960Z,99.64
2019-04-01T04:46:34.582Z,100.00
2019-04-01T04:49:42.052Z,99.98
2019-04-01T04:52:49.345Z,99.47
2019-04-01T04:55:56.706Z,100.00
2019-04-01T04:59:04.379Z,100.00
2019-04-01T05:02:11.866Z,100.00
2019-04-01T05:05:19.735Z,100.00
2019-04-01T05:08:27.411Z,100.00
2019-04-01T05:11:34.863Z,100.00
2019-04-01T05:14:42.268Z,100.00
2019-04-01T05:17:49.736Z,100.00
2019-04-01T05:20:59.066Z,100.00
2019-04-01T05:24:07.582Z,100.00
2019-04-01T05:27:20.797Z,99.49
2019-04-01T05:30:32.596Z,99.20
2019-04-01T05:33:54.867Z,98.69
2019-04-01T05:36:55.578Z,98.75
2019-04-01T05:40:04.739Z,99.17
2019-04-01T05:43:12.230Z,98.54
2019-04-01T05:46:19.994Z,97.40
2019-04-01T05:49:27.721Z,95.95
2019-04-01T05:52:35.427Z,97.19
2019-04-01T05:55:43.281Z,99.13
2019-04-01T05:58:50.817Z,100.00
2019-04-01T06:01:58.211Z,100.00
2019-04-01T06:05:06.442Z,98.29
2019-04-01T06:08:13.930Z,95.11
2019-04-01T06:11:21.378Z,91.28
2019-04-01T06:14:29.310Z,92.27
2019-04-01T06:17:37.117Z,91.78
2019-04-01T06:20:45.535Z,91.08
2019-04-01T06:23:53.123Z,89.92
2019-04-01T06:27:00.612Z,87.80
2019-04-01T06:30:08.546Z,89.74
2019-04-01T06:33:16.007Z,88.95
2019-04-01T06:36:23.421Z,89.71
2019-04-01T06:39:30.806Z,91.03
2019-04-01T06:42:38.628Z,90.09
2019-04-01T06:45:46.175Z,89.69
2019-04-01T06:48:53.714Z,86.99
2019-04-01T06:52:01.502Z,84.50
2019-04-01T06:55:08.996Z,82.65
2019-04-01T06:58:17.323Z,82.41
2019-04-01T07:01:27.284Z,84.22
2019-04-01T07:04:36.344Z,83.32
2019-04-01T07:07:45.148Z,82.64
2019-04-01T07:10:55.358Z,83.01
2019-04-01T07:14:04.208Z,83.32
2019-04-01T07:17:15.071Z,81.46
2019-04-01T07:20:24.916Z,80.60
2019-04-01T07:23:32.620Z,82.59
2019-04-01T07:26:40.145Z,83.10
2019-04-01T07:29:47.737Z,82.11
2019-04-01T07:32:55.763Z,80.08
2019-04-01T07:36:03.143Z,81.53
2019-04-01T07:39:10.563Z,79.73
2019-04-01T07:42:18.661Z,80.33
2019-04-01T07:45:26.606Z,77.89
2019-04-01T07:48:34.498Z,76.63
2019-04-01T07:51:42.531Z,75.74
2019-04-01T07:54:50.099Z,74.94
2019-04-01T07:57:59.872Z,73.85
2019-04-01T08:01:07.811Z,75.09
2019-04-01T08:04:30.484Z,75.34
2019-04-01T08:07:39.782Z,74.37
2019-04-01T08:10:47.388Z,75.57
2019-04-01T08:13:55.435Z,77.81
2019-04-01T08:17:02.945Z,78.12
2019-04-01T08:20:10.799Z,79.22
2019-04-01T08:23:18.541Z,78.60
2019-04-01T08:26:26.498Z,78.58
2019-04-01T08:29:34.028Z,76.29
2019-04-01T08:32:41.590Z,74.84
2019-04-01T08:35:49.255Z,75.50
2019-04-01T08:38:56.818Z,76.15
2019-04-01T08:42:04.330Z,76.05
2019-04-01T08:45:11.821Z,74.80
2019-04-01T08:48:19.585Z,75.40
2019-04-01T08:51:27.023Z,71.88
2019-04-01T08:54:34.603Z,69.79
2019-04-01T08:57:42.075Z,69.32
2019-04-01T09:00:49.918Z,67.46
2019-04-01T09:03:58.063Z,71.95
2019-04-01T09:07:05.490Z,70.85
2019-04-01T09:10:13.932Z,72.83
2019-04-01T09:13:22.448Z,72.41
2019-04-01T09:16:31.257Z,70.76
2019-04-01T09:19:38.800Z,72.07
2019-04-01T09:22:46.714Z,71.44
2019-04-01T09:25:54.193Z,69.49
2019-04-01T09:29:01.720Z,71.81
2019-04-01T09:32:09.511Z,70.82
2019-04-01T09:35:17.114Z,70.42
2019-04-01T09:38:25.936Z,70.11
2019-04-01T09:41:33.660Z,68.61
2019-04-01T09:44:41.636Z,67.76
2019-04-01T09:47:49.128Z,66.76
2019-04-01T09:50:56.544Z,67.26
2019-04-01T09:54:04.299Z,67.18
2019-04-01T09:57:17.920Z,68.03
2019-04-01T10:00:22.033Z,68.48
2019-04-01T10:03:29.497Z,68.16
2019-04-01T10:06:37.020Z,69.16
2019-04-01T10:09:44.379Z,69.58
2019-04-01T10:12:52.134Z,70.37
2019-04-01T10:15:59.690Z,69.99
2019-04-01T10:19:07.532Z,69.83
2019-04-01T10:22:15.125Z,67.80
2019-04-01T10:25:22.814Z,68.95
2019-04-01T10:28:32.130Z,69.63
2019-04-01T10:31:39.607Z,68.49
2019-04-01T10:34:47.203Z,68.19
2019-04-01T10:37:54.688Z,67.90
2019-04-01T10:41:02.181Z,67.19
2019-04-01T10:44:09.995Z,67.44
2019-04-01T10:47:17.650Z,67.23
2019-04-01T10:50:25.469Z,66.42
2019-04-01T10:53:32.821Z,66.72
2019-04-01T10:56:40.109Z,66.05
2019-04-01T10:59:47.522Z,65.53
2019-04-01T11:02:54.833Z,66.73
2019-04-01T11:06:02.729Z,66.41
2019-04-01T11:09:10.954Z,66.47
2019-04-01T11:12:18.699Z,65.39
2019-04-01T11:15:26.322Z,63.43
2019-04-01T11:18:34.103Z,64.10
2019-04-01T11:21:41.894Z,64.41
2019-04-01T11:24:49.667Z,64.78
2019-04-01T11:27:56.989Z,64.67
2019-04-01T11:31:04.386Z,65.29
2019-04-01T11:34:12.855Z,66.08
2019-04-01T11:37:20.097Z,66.76
2019-04-01T11:40:27.684Z,65.15
2019-04-01T11:43:35.742Z,64.43
2019-04-01T11:46:43.642Z,63.73
2019-04-01T11:49:51.256Z,65.18
2019-04-01T11:52:58.972Z,64.52
2019-04-01T11:56:06.373Z,64.78
2019-04-01T11:59:13.722Z,66.07
2019-04-01T12:02:21.597Z,64.83
2019-04-01T12:05:29.916Z,64.90
2019-04-01T12:08:37.195Z,65.30
2019-04-01T12:11:44.553Z,65.27
2019-04-01T12:14:52.046Z,64.84
2019-04-01T12:17:59.468Z,65.44
2019-04-01T12:21:08.263Z,65.72
2019-04-01T12:24:16.017Z,66.06
2019-04-01T12:27:23.822Z,64.38
2019-04-01T12:30:31.330Z,64.18
2019-04-01T12:33:38.878Z,65.05
2019-04-01T12:36:46.102Z,64.70
2019-04-01T12:39:53.819Z,64.37
2019-04-01T12:43:01.811Z,64.37
2019-04-01T12:46:09.590Z,64.06
2019-04-01T12:49:17.309Z,64.24
2019-04-01T12:52:24.589Z,62.97
2019-04-01T12:55:31.854Z,63.19
2019-04-01T12:58:39.395Z,63.37
2019-04-01T13:01:47.001Z,63.45
2019-04-01T13:04:54.698Z,62.89
2019-04-01T13:08:02.071Z,63.88
2019-04-01T13:11:10.147Z,63.88
2019-04-01T13:14:17.752Z,63.26
2019-04-01T13:17:25.013Z,63.11
2019-04-01T13:20:38.152Z,62.84
2019-04-01T13:23:41.709Z,62.89
2019-04-01T13:26:50.893Z,62.87
2019-04-01T13:29:58.659Z,62.58
2019-04-01T13:33:06.275Z,62.84
2019-04-01T13:36:13.877Z,62.19
2019-04-01T13:39:21.771Z,62.67
2019-04-01T13:42:29.666Z,61.77
2019-04-01T13:45:37.164Z,61.06
2019-04-01T13:48:56.973Z,61.01
2019-04-01T13:51:53.991Z,61.43
2019-04-01T13:55:02.039Z,61.55
2019-04-01T13:58:10.503Z,61.66
2019-04-01T14:01:18.236Z,62.31
2019-04-01T14:04:27.335Z,61.99
2019-04-01T14:07:35.107Z,61.73
2019-04-01T14:10:42.608Z,61.64
2019-04-01T14:13:50.610Z,61.73
2019-04-01T14:16:58.175Z,63.29
2019-04-01T14:20:06.687Z,61.00
2019-04-01T14:23:14.699Z,61.32
2019-04-01T14:26:22.206Z,60.92
2019-04-01T14:29:29.623Z,60.46
2019-04-01T14:32:37.406Z,60.27
2019-04-01T14:35:45.300Z,61.03
2019-04-01T14:38:52.675Z,60.46
2019-04-01T14:41:59.934Z,60.63
2019-04-01T14:45:10.380Z,60.36
2019-04-01T14:48:18.013Z,60.56
2019-04-01T14:54:41.219Z,60.32
2019-04-01T14:57:48.661Z,59.95
2019-04-01T15:00:56.159Z,59.91
2019-04-01T15:04:05.289Z,60.25
2019-04-01T15:07:14.054Z,59.78
2019-04-01T15:10:23.028Z,59.74
2019-04-01T15:13:30.230Z,60.42
2019-04-01T15:16:37.899Z,60.10
2019-04-01T15:19:48.524Z,60.15
2019-04-01T15:22:56.024Z,60.47
2019-04-01T15:26:04.065Z,60.53
2019-04-01T15:29:11.580Z,60.24
2019-04-01T15:32:19.453Z,60.90
2019-04-01T15:35:27.146Z,60.73
2019-04-01T15:38:34.995Z,60.84
2019-04-01T15:41:43.241Z,61.56
2019-04-01T15:44:51.055Z,61.77
2019-04-01T15:47:59.601Z,61.68
2019-04-01T15:51:07.937Z,61.69
2019-04-01T15:54:16.210Z,61.60
2019-04-01T15:57:24.714Z,61.07
2019-04-01T16:00:32.793Z,62.00
2019-04-01T16:03:41.315Z,62.19
2019-04-01T16:06:48.940Z,61.97
2019-04-01T16:09:56.525Z,62.12
2019-04-01T16:13:04.202Z,62.84
2019-04-01T16:16:14.275Z,62.11
2019-04-01T16:19:20.681Z,62.50
2019-04-01T16:22:28.021Z,62.10
2019-04-01T16:25:37.599Z,62.88
2019-04-01T16:28:45.379Z,62.98
2019-04-01T16:31:55.425Z,62.85
2019-04-01T16:35:03.952Z,62.64
2019-04-01T16:38:11.784Z,63.25
2019-04-01T16:41:19.781Z,63.55
2019-04-01T16:44:27.379Z,63.53
2019-04-01T16:47:34.877Z,63.79
2019-04-01T16:50:42.401Z,64.16
2019-04-01T16:53:49.911Z,64.76
2019-04-01T16:56:57.367Z,65.10
2019-04-01T17:00:08.378Z,64.99
2019-04-01T17:03:16.447Z,65.55
2019-04-01T17:06:23.962Z,66.16
2019-04-01T17:09:31.754Z,66.32
2019-04-01T17:12:39.744Z,66.54
2019-04-01T17:15:48.898Z,67.17
2019-04-01T17:18:57.808Z,67.86
2019-04-01T17:22:05.907Z,68.25
2019-04-01T17:25:14.446Z,68.83
2019-04-01T17:28:22.012Z,69.10
2019-04-01T17:31:29.885Z,70.01
2019-04-01T17:34:37.687Z,70.73
2019-04-01T17:37:46.001Z,71.31
2019-04-01T17:40:53.759Z,71.81
2019-04-01T17:44:01.712Z,72.28
2019-04-01T17:47:09.414Z,73.03
2019-04-01T17:50:17.012Z,73.39
2019-04-01T17:53:25.008Z,74.47
2019-04-01T17:56:33.074Z,75.41
2019-04-01T17:59:41.593Z,75.86
2019-04-01T18:02:50.245Z,76.75
2019-04-01T18:05:58.223Z,77.22
2019-04-01T18:09:07.009Z,77.89
2019-04-01T18:12:15.980Z,79.06
2019-04-01T18:15:26.263Z,79.84
2019-04-01T18:18:36.096Z,80.57
2019-04-01T18:21:47.111Z,81.14
2019-04-01T18:24:55.700Z,81.80
2019-04-01T18:28:05.415Z,82.44
2019-04-01T18:31:13.731Z,83.38
2019-04-01T18:34:23.218Z,84.13
2019-04-01T18:37:31.732Z,84.72
2019-04-01T18:40:39.662Z,85.45
2019-04-01T18:43:48.690Z,86.15
2019-04-01T18:46:57.957Z,86.95
2019-04-01T18:50:08.082Z,87.39
2019-04-01T18:53:15.513Z,87.27
2019-04-01T18:56:23.511Z,87.25
2019-04-01T18:59:34.577Z,87.64
2019-04-01T19:02:42.574Z,87.66
2019-04-01T19:05:50.570Z,88.24
2019-04-01T19:09:08.745Z,88.96
2019-04-01T19:12:10.925Z,89.77
2019-04-01T19:15:19.219Z,90.10
2019-04-01T19:18:27.446Z,90.65
2019-04-01T19:21:36.984Z,90.61
2019-04-01T19:25:23.226Z,90.65
2019-04-01T19:28:35.947Z,90.66
2019-04-01T19:32:14.581Z,91.16
2019-04-01T19:35:27.272Z,91.94
2019-04-01T19:38:43.758Z,92.10
2019-04-01T19:41:51.954Z,92.53
2019-04-01T19:45:04.616Z,92.93
2019-04-01T19:48:15.963Z,93.26
2019-04-01T19:51:24.180Z,93.67
2019-04-01T19:54:43.282Z,93.77
2019-04-01T19:57:53.122Z,94.20
2019-04-01T20:01:05.718Z,94.77
2019-04-01T20:04:14.823Z,95.01
2019-04-01T20:07:26.481Z,94.84
2019-04-01T20:10:37.806Z,95.63
2019-04-01T20:13:46.390Z,96.52
2019-04-01T20:17:09.991Z,97.16
2019-04-01T20:20:14.721Z,97.15
2019-04-01T20:23:23.434Z,97.47
2019-04-01T20:26:34.559Z,98.30
2019-04-01T20:29:48.279Z,98.99
2019-04-01T20:32:59.156Z,98.74
2019-04-01T20:36:09.389Z,98.65
2019-04-01T20:39:19.786Z,98.13
2019-04-01T20:42:34.247Z,98.15
2019-04-01T20:45:42.860Z,98.46
2019-04-01T20:48:50.894Z,97.94
2019-04-01T20:51:58.522Z,98.12
2019-04-01T20:55:06.909Z,98.67
2019-04-01T20:58:14.685Z,99.22
2019-04-01T21:01:22.850Z,99.00
2019-04-01T21:04:30.715Z,99.04
2019-04-01T21:07:38.143Z,99.21
2019-04-01T21:10:45.615Z,99.10
2019-04-01T21:13:53.451Z,99.32
2019-04-01T21:17:06.203Z,99.34
2019-04-01T21:20:14.889Z,99.59
2019-04-01T21:23:22.212Z,99.81
2019-04-01T21:26:29.677Z,100.00
2019-04-01T21:29:37.324Z,99.96
2019-04-01T21:32:45.323Z,100.00
2019-04-01T21:35:53.185Z,100.00
2019-04-01T21:39:01.289Z,100.00
2019-04-01T21:42:09.257Z,100.00
2019-04-01T21:45:16.906Z,100.00
2019-04-01T21:48:24.621Z,99.78
2019-04-01T21:51:33.166Z,99.44
2019-04-01T21:54:41.182Z,99.50
2019-04-01T21:57:48.737Z,99.45
2019-04-01T22:00:57.052Z,100.00
2019-04-01T22:04:04.622Z,100.00
2019-04-01T22:07:12.215Z,100.00
2019-04-01T22:10:19.824Z,100.00
2019-04-01T22:13:27.507Z,99.97
2019-04-01T22:16:35.559Z,100.00
2019-04-01T22:19:43.254Z,100.00
2019-04-01T22:22:50.656Z,100.00
2019-04-01T22:25:58.915Z,100.00
2019-04-01T22:29:07.087Z,100.00
2019-04-01T22:32:14.473Z,100.00
2019-04-01T22:35:22.182Z,100.00
2019-04-01T22:38:29.655Z,98.36
2019-04-01T22:41:37.051Z,97.60
2019-04-01T22:44:44.695Z,98.36
2019-04-01T22:47:52.788Z,98.85
2019-04-01T22:51:00.036Z,99.92
2019-04-01T22:54:07.589Z,100.00
2019-04-01T22:57:15.472Z,100.00
2019-04-01T23:00:23.050Z,100.00
2019-04-01T23:03:31.085Z,99.87
2019-04-01T23:06:38.934Z,99.35
2019-04-01T23:09:46.355Z,98.21
2019-04-01T23:12:54.386Z,97.70
2019-04-01T23:16:01.992Z,98.73
2019-04-01T23:19:09.375Z,99.86
2019-04-01T23:22:16.761Z,99.05
2019-04-01T23:25:25.244Z,98.16
2019-04-01T23:28:33.541Z,97.93
2019-04-01T23:31:40.998Z,97.17
2019-04-01T23:34:48.384Z,97.56
2019-04-01T23:37:56.499Z,98.52
2019-04-01T23:41:04.052Z,100.00
2019-04-01T23:44:11.699Z,100.00
2019-04-01T23:47:19.234Z,100.00
2019-04-01T23:50:26.421Z,100.00
2019-04-01T23:53:34.406Z,100.00
2019-04-01T23:56:42.093Z,100.00
2019-04-01T23:59:49.809Z,100.00
